HHN weather

Frankfurt-Hahn Airport
Frankfurt am Main, Rhineland-Palatinate, Germany

Public forecast

Using degrees Celsius for public forecast. Weather courtesy of forecast.io.

Current aviation weather report (METAR) for Frankfurt-Hahn Airport

Retrieved 2020/06/02 17:50 UTC (15 minutes ago):

EDFH 021750Z 13004KT CAVOK 23/06 Q1014

Aviation forecast (TAF) for Frankfurt-Hahn Airport

Retrieved 2020/06/02 18:27 UTC (0 seconds ago):

TAF EDFH 021700Z 0218/0318 10005KT CAVOK BECMG 0222/0301 19005KT BECMG 0307/0310 28005KT PROB30 TEMPO 0311/0318 27020G35KT TSRA BKN045CB